Time;durP1;ratioP1;P1;durP2;ratioP2;P2;SDS_P1;SDS_P2;PMS_P1;PMS_P2;Temp;Humidity;BMP_temperature;BMP_pressure;BME280_temperature;BME280_humidity;BME280_pressure;Samples;Min_cycle;Max_cycle;Signal;HPM_P1;HPM_P2
2023/02/10 00:01:24;;;;;;;100.38;34.63;;;4.00;99.90;;;;;;5016487;28;20014;-76
2023/02/10 00:03:50;;;;;;;88.05;33.38;;;4.00;99.90;;;;;;5009189;28;20407;-77
2023/02/10 00:06:17;;;;;;;85.95;33.10;;;4.00;99.90;;;;;;5011099;28;20058;-77
2023/02/10 00:08:47;;;;;;;84.00;32.50;;;4.00;99.90;;;;;;5010132;28;20042;-78
2023/02/10 00:11:13;;;;;;;82.10;32.13;;;4.00;99.90;;;;;;5011495;28;20021;-77
2023/02/10 00:13:39;;;;;;;87.30;33.65;;;4.00;99.90;;;;;;5012070;28;20023;-77
2023/02/10 00:16:09;;;;;;;79.07;32.35;;;4.00;99.90;;;;;;5011157;28;20110;-77
2023/02/10 00:18:35;;;;;;;90.25;32.95;;;4.00;99.90;;;;;;5010348;28;20111;-78
2023/02/10 00:21:16;;;;;;;84.65;30.73;;;4.00;99.90;;;;;;5010847;28;20470;-75
2023/02/10 00:23:43;;;;;;;86.85;32.45;;;4.00;99.90;;;;;;5012193;28;20017;-77
2023/02/10 00:26:11;;;;;;;83.25;31.77;;;4.00;99.90;;;;;;5012487;28;20034;-77
2023/02/10 00:28:37;;;;;;;74.68;29.27;;;4.00;99.90;;;;;;5011642;28;20030;-78
2023/02/10 00:31:13;;;;;;;74.32;29.30;;;4.00;99.90;;;;;;5011634;28;20037;-74
2023/02/10 00:33:40;;;;;;;83.95;31.33;;;4.00;99.90;;;;;;5015155;28;20041;-73
2023/02/10 00:36:08;;;;;;;77.50;31.02;;;4.00;99.90;;;;;;5012360;28;20045;-75
2023/02/10 00:38:34;;;;;;;74.30;31.70;;;4.00;99.90;;;;;;5010866;28;20077;-75
2023/02/10 00:41:11;;;;;;;78.00;30.83;;;4.00;99.90;;;;;;5010383;28;20029;-75
2023/02/10 00:43:39;;;;;;;84.28;30.77;;;4.00;99.90;;;;;;5010469;28;20023;-76
2023/02/10 00:46:05;;;;;;;77.88;30.17;;;4.00;99.90;;;;;;5010920;28;20026;-75
2023/02/10 00:48:31;;;;;;;81.22;30.13;;;3.90;99.90;;;;;;5011393;28;20018;-76
2023/02/10 00:50:56;;;;;;;79.63;29.85;;;3.90;99.90;;;;;;5009722;28;20106;-76
2023/02/10 00:53:22;;;;;;;95.65;31.20;;;3.90;99.90;;;;;;5012084;28;20115;-75
2023/02/10 00:55:48;;;;;;;77.10;30.30;;;3.90;99.90;;;;;;5009456;28;20057;-74
2023/02/10 00:58:13;;;;;;;82.88;29.45;;;3.90;99.90;;;;;;5015586;28;20046;-71
2023/02/10 01:00:39;;;;;;;85.13;28.10;;;3.90;99.90;;;;;;5010484;28;20032;-79
2023/02/10 01:03:04;;;;;;;79.90;28.60;;;3.90;99.90;;;;;;5010050;28;20482;-77
2023/02/10 01:05:30;;;;;;;76.30;29.75;;;3.90;99.90;;;;;;5010716;28;20054;-77
2023/02/10 01:07:56;;;;;;;77.25;30.10;;;3.90;99.90;;;;;;5009512;28;20026;-76
2023/02/10 01:10:22;;;;;;;67.85;28.73;;;3.90;99.90;;;;;;5011677;28;20017;-76
2023/02/10 01:12:47;;;;;;;79.85;30.70;;;3.90;99.90;;;;;;5011159;28;20756;-76
2023/02/10 01:15:14;;;;;;;73.60;28.05;;;3.90;99.90;;;;;;5010661;28;20046;-77
2023/02/10 01:17:39;;;;;;;78.75;29.60;;;3.90;99.90;;;;;;5009841;28;20022;-76
2023/02/10 01:20:06;;;;;;;79.85;28.88;;;3.90;99.90;;;;;;5010944;28;20034;-76
2023/02/10 01:22:32;;;;;;;73.80;28.33;;;3.80;99.90;;;;;;5015155;28;20034;-78
2023/02/10 01:24:58;;;;;;;75.40;29.02;;;3.80;99.90;;;;;;5008816;28;20103;-76
2023/02/10 01:27:24;;;;;;;73.60;28.65;;;3.80;99.90;;;;;;5009607;28;20027;-74
2023/02/10 01:29:49;;;;;;;79.13;28.65;;;3.80;99.90;;;;;;5010838;28;20043;-76
2023/02/10 01:32:15;;;;;;;77.38;29.33;;;3.80;99.90;;;;;;5009961;28;20030;-76
2023/02/10 01:34:41;;;;;;;88.85;29.60;;;3.80;99.90;;;;;;5010496;28;20113;-75
2023/02/10 01:37:06;;;;;;;77.35;28.45;;;3.80;99.90;;;;;;5008895;28;20026;-76
2023/02/10 01:39:32;;;;;;;70.82;27.52;;;3.70;99.90;;;;;;5007689;28;20112;-75
2023/02/10 01:41:58;;;;;;;73.13;29.40;;;3.60;99.90;;;;;;5010675;28;20038;-78
2023/02/10 01:44:26;;;;;;;70.82;28.13;;;3.60;99.90;;;;;;5008784;28;20083;-76
2023/02/10 01:46:53;;;;;;;60.28;25.63;;;3.50;99.90;;;;;;5015268;28;20046;-76
2023/02/10 01:49:26;;;;;;;73.25;27.02;;;3.50;99.90;;;;;;5010589;28;20061;-74
2023/02/10 01:51:51;;;;;;;69.90;27.73;;;3.40;99.90;;;;;;5009026;28;20042;-75
2023/02/10 01:54:23;;;;;;;82.47;28.75;;;3.40;99.90;;;;;;5009671;28;20566;-77
2023/02/10 01:56:49;;;;;;;77.97;27.50;;;3.40;99.90;;;;;;5010234;28;20030;-76
2023/02/10 01:59:16;;;;;;;73.90;26.27;;;3.30;99.90;;;;;;5008833;28;20031;-77
2023/02/10 02:01:44;;;;;;;77.18;28.45;;;3.30;99.90;;;;;;5010200;28;20479;-77
2023/02/10 02:04:09;;;;;;;77.63;27.38;;;3.20;99.90;;;;;;5010107;28;20106;-77
2023/02/10 02:06:35;;;;;;;70.13;28.00;;;3.20;99.90;;;;;;5009793;28;20161;-76
2023/02/10 02:09:01;;;;;;;72.25;28.17;;;3.20;99.90;;;;;;5007858;28;20030;-76
2023/02/10 02:11:51;;;;;;;75.90;28.80;;;3.10;99.90;;;;;;5009421;28;20068;-77
2023/02/10 02:14:36;;;;;;;72.55;28.73;;;3.10;99.90;;;;;;5008441;28;20032;-77
2023/02/10 02:17:36;;;;;;;79.43;29.25;;;3.10;99.90;;;;;;5007773;28;20032;-78
2023/02/10 02:20:40;;;;;;;91.82;28.05;;;3.10;99.90;;;;;;5023407;28;20187;-78
2023/02/10 02:23:11;;;;;;;69.82;27.30;;;3.10;99.90;;;;;;5009481;28;20049;-77
2023/02/10 02:26:02;;;;;;;83.10;30.25;;;3.10;99.90;;;;;;5008713;28;20034;-78
2023/02/10 02:28:36;;;;;;;77.97;28.85;;;3.10;99.90;;;;;;5009745;28;20088;-78
2023/02/10 02:31:09;;;;;;;;;;;3.10;99.90;;;;;;5014180;28;20034;-78
2023/02/10 02:33:48;;;;;;;72.68;26.90;;;3.20;99.90;;;;;;5008993;28;19913;-77
2023/02/10 02:36:22;;;;;;;72.13;26.73;;;3.20;99.90;;;;;;5015575;28;20045;-77
2023/02/10 02:38:48;;;;;;;74.00;27.08;;;3.20;99.90;;;;;;5008965;28;20017;-78
2023/02/10 02:41:22;;;;;;;80.90;28.23;;;3.20;99.90;;;;;;5008256;28;20018;-78
2023/02/10 02:43:48;;;;;;;74.47;27.88;;;3.30;99.90;;;;;;5009240;28;20026;-77
2023/02/10 02:46:31;;;;;;;73.03;27.55;;;3.30;99.90;;;;;;5009399;28;20168;-76
2023/02/10 02:49:13;;;;;;;71.37;27.47;;;3.30;99.90;;;;;;5009706;28;20034;-78
2023/02/10 02:52:11;;;;;;;77.38;27.77;;;3.30;99.90;;;;;;5013856;28;20465;-76
2023/02/10 02:55:05;;;;;;;71.82;24.92;;;3.20;99.90;;;;;;5007945;28;20044;-77
2023/02/10 02:57:53;;;;;;;69.20;26.93;;;3.20;99.90;;;;;;5006819;28;20042;-77
2023/02/10 03:00:24;;;;;;;70.30;25.30;;;3.10;99.90;;;;;;5014175;28;20503;-76
2023/02/10 03:02:52;;;;;;;73.28;25.60;;;3.10;99.90;;;;;;5021312;28;20426;-77
2023/02/10 03:05:23;;;;;;;69.00;26.52;;;3.10;99.90;;;;;;5014191;28;20030;-77
2023/02/10 03:07:49;;;;;;;65.88;26.45;;;3.00;99.90;;;;;;5014162;28;20061;-76
2023/02/10 03:10:15;;;;;;;69.57;27.67;;;3.00;99.90;;;;;;5012616;28;20033;-77
2023/02/10 03:12:41;;;;;;;69.28;26.65;;;3.00;99.90;;;;;;5014067;28;20056;-75
2023/02/10 03:15:07;;;;;;;78.10;27.73;;;3.00;99.90;;;;;;5014004;28;20031;-76
2023/02/10 03:17:32;;;;;;;77.40;26.48;;;2.90;99.90;;;;;;5012718;28;20161;-76
2023/02/10 03:19:58;;;;;;;62.15;24.58;;;2.90;99.90;;;;;;5014161;28;20068;-76
2023/02/10 03:22:23;;;;;;;72.95;26.58;;;2.90;99.90;;;;;;5013049;28;20116;-76
2023/02/10 03:24:49;;;;;;;79.45;28.27;;;2.80;99.90;;;;;;5012954;28;20829;-74
2023/02/10 03:27:15;;;;;;;71.35;26.42;;;2.80;99.90;;;;;;5012827;28;20021;-74
2023/02/10 03:29:41;;;;;;;82.30;27.70;;;2.80;99.90;;;;;;5013303;28;20025;-75
2023/02/10 03:32:07;;;;;;;75.22;27.98;;;2.80;99.90;;;;;;5013119;28;20025;-74
2023/02/10 03:34:33;;;;;;;77.10;27.70;;;2.80;99.90;;;;;;5014025;28;20065;-74
2023/02/10 03:36:58;;;;;;;70.32;27.95;;;2.70;99.90;;;;;;5013872;28;20022;-75
2023/02/10 03:39:24;;;;;;;80.20;29.42;;;2.70;99.90;;;;;;5013225;28;20501;-75
2023/02/10 03:41:49;;;;;;;75.28;27.02;;;2.80;99.90;;;;;;5009937;28;20383;-74
2023/02/10 03:44:15;;;;;;;77.40;27.75;;;2.70;99.90;;;;;;5011754;28;20069;-75
2023/02/10 03:46:40;;;;;;;74.22;28.27;;;2.60;99.90;;;;;;5013208;28;20037;-75
2023/02/10 03:49:06;;;;;;;78.95;26.70;;;2.60;99.90;;;;;;5013990;28;20029;-74
2023/02/10 03:51:32;;;;;;;80.68;28.00;;;2.60;99.90;;;;;;5014178;28;20121;-77
2023/02/10 03:53:57;;;;;;;73.53;27.50;;;2.60;99.90;;;;;;5013983;28;20034;-76
2023/02/10 03:56:23;;;;;;;82.55;29.17;;;2.60;99.90;;;;;;5012812;28;20045;-75
2023/02/10 03:58:48;;;;;;;80.53;30.05;;;2.50;99.90;;;;;;5013496;28;20820;-75
2023/02/10 04:01:16;;;;;;;80.32;27.25;;;2.50;99.90;;;;;;5011980;28;20022;-74
2023/02/10 04:03:43;;;;;;;72.90;29.02;;;2.40;99.90;;;;;;5012920;28;20022;-75
2023/02/10 04:06:09;;;;;;;70.13;27.95;;;2.40;99.90;;;;;;5012607;28;20034;-74
2023/02/10 04:08:36;;;;;;;84.00;29.05;;;2.40;99.90;;;;;;5011441;28;20085;-74
2023/02/10 04:11:02;;;;;;;79.32;29.02;;;2.50;99.90;;;;;;5012001;28;20029;-74
2023/02/10 04:13:27;;;;;;;88.30;28.95;;;2.40;99.90;;;;;;5013321;28;20095;-75
2023/02/10 04:16:01;;;;;;;83.60;29.52;;;2.40;99.90;;;;;;5012758;28;20022;-74
2023/02/10 04:18:27;;;;;;;78.28;29.15;;;2.40;99.90;;;;;;5020173;28;20029;-75
2023/02/10 04:20:56;;;;;;;81.15;27.90;;;2.40;99.90;;;;;;5013760;28;20044;-76
2023/02/10 04:23:21;;;;;;;83.20;28.58;;;2.40;99.90;;;;;;5013855;28;20065;-75
2023/02/10 04:25:47;;;;;;;83.85;29.45;;;2.40;99.90;;;;;;5012743;28;20022;-75
2023/02/10 04:28:12;;;;;;;83.55;30.08;;;2.40;99.90;;;;;;5013643;28;20048;-74
2023/02/10 04:30:38;;;;;;;78.07;29.45;;;2.40;99.90;;;;;;5012843;28;20022;-74
2023/02/10 04:33:03;;;;;;;72.65;29.40;;;2.40;99.90;;;;;;5011445;28;20038;-74
2023/02/10 04:35:29;;;;;;;84.35;28.60;;;2.40;99.90;;;;;;5013917;28;20034;-74
2023/02/10 04:37:56;;;;;;;81.90;30.25;;;2.30;99.90;;;;;;5013730;28;20026;-74
2023/02/10 04:40:22;;;;;;;87.75;31.05;;;2.30;99.90;;;;;;5013066;28;20038;-74
2023/02/10 04:42:47;;;;;;;88.18;30.25;;;2.30;99.90;;;;;;5013276;28;20113;-73
2023/02/10 04:45:13;;;;;;;81.82;27.30;;;2.30;99.90;;;;;;5013519;28;20078;-74
2023/02/10 04:47:38;;;;;;;72.00;28.30;;;2.30;99.90;;;;;;5012785;28;20109;-73
2023/02/10 04:50:05;;;;;;;91.93;30.75;;;2.30;99.90;;;;;;5012740;28;20498;-73
2023/02/10 04:52:30;;;;;;;79.68;29.48;;;2.20;99.90;;;;;;5011388;28;20038;-74
2023/02/10 04:54:56;;;;;;;72.57;28.30;;;2.20;99.90;;;;;;5013091;28;20053;-76
2023/02/10 04:57:21;;;;;;;91.82;28.08;;;2.10;99.90;;;;;;5012760;28;20105;-74
2023/02/10 04:59:47;;;;;;;85.82;28.98;;;2.20;99.90;;;;;;5011582;28;20022;-76
2023/02/10 05:02:12;;;;;;;86.10;30.70;;;2.20;99.90;;;;;;5013255;28;20057;-75
2023/02/10 05:04:38;;;;;;;88.18;30.73;;;2.10;99.90;;;;;;5011962;28;20030;-75
2023/02/10 05:07:04;;;;;;;89.13;32.60;;;2.10;99.90;;;;;;5011721;28;20062;-76
2023/02/10 05:09:30;;;;;;;87.28;31.42;;;2.10;99.90;;;;;;5010765;28;20022;-76
2023/02/10 05:11:55;;;;;;;84.90;31.33;;;2.10;99.90;;;;;;5011786;28;20129;-75
2023/02/10 05:14:21;;;;;;;85.82;29.20;;;2.10;99.90;;;;;;5011107;28;20018;-74
2023/02/10 05:16:46;;;;;;;85.53;29.88;;;2.10;99.90;;;;;;5012064;28;20085;-75
2023/02/10 05:19:13;;;;;;;84.28;28.98;;;2.10;99.90;;;;;;5011451;28;20027;-75
2023/02/10 05:21:38;;;;;;;78.22;28.80;;;2.00;99.90;;;;;;5012569;28;20026;-74
2023/02/10 05:24:04;;;;;;;75.47;28.92;;;2.00;99.90;;;;;;5010577;28;20045;-74
2023/02/10 05:26:30;;;;;;;78.95;30.10;;;2.00;99.90;;;;;;5011183;28;20023;-74
2023/02/10 05:28:55;;;;;;;78.95;29.70;;;2.00;99.90;;;;;;5012677;28;20062;-74
2023/02/10 05:31:21;;;;;;;92.72;30.67;;;2.00;99.90;;;;;;5011843;28;20383;-74
2023/02/10 05:33:46;;;;;;;79.63;29.60;;;2.00;99.90;;;;;;5012332;28;20073;-75
2023/02/10 05:36:12;;;;;;;91.35;31.17;;;2.00;99.90;;;;;;5011137;28;20476;-75
2023/02/10 05:38:37;;;;;;;82.03;30.25;;;2.00;99.90;;;;;;5010573;28;20029;-76
2023/02/10 05:41:03;;;;;;;88.38;29.08;;;2.00;99.90;;;;;;5006662;28;20085;-73
2023/02/10 05:43:29;;;;;;;86.50;29.85;;;2.00;99.90;;;;;;5008237;28;20038;-74
2023/02/10 05:45:54;;;;;;;82.78;29.70;;;2.00;99.90;;;;;;5007685;28;20033;-74
2023/02/10 05:48:20;;;;;;;75.22;28.77;;;1.90;99.90;;;;;;5007058;28;20033;-75
2023/02/10 05:50:50;;;;;;;81.90;29.65;;;2.00;99.90;;;;;;5009122;28;20037;-74
2023/02/10 05:53:15;;;;;;;83.78;30.20;;;1.90;99.90;;;;;;5008073;28;20046;-74
2023/02/10 05:55:41;;;;;;;89.18;30.23;;;1.90;99.90;;;;;;5009566;28;20155;-75
2023/02/10 05:58:06;;;;;;;80.85;30.15;;;1.90;99.90;;;;;;5011788;28;20060;-74
2023/02/10 06:00:32;;;;;;;88.00;29.77;;;1.90;99.90;;;;;;5017569;28;20026;-75
2023/02/10 06:02:58;;;;;;;77.03;30.15;;;1.90;99.90;;;;;;5011390;28;20057;-76
2023/02/10 06:05:23;;;;;;;84.65;30.45;;;2.00;99.90;;;;;;5011751;28;20026;-75
2023/02/10 06:07:49;;;;;;;83.93;29.92;;;1.90;99.90;;;;;;5011911;28;20045;-74
2023/02/10 06:10:14;;;;;;;89.45;30.70;;;1.90;99.90;;;;;;5010878;28;20026;-74
2023/02/10 06:12:40;;;;;;;83.15;30.50;;;1.90;99.90;;;;;;5009352;28;20042;-77
2023/02/10 06:15:06;;;;;;;81.80;28.73;;;1.90;99.90;;;;;;5013015;28;20018;-75
2023/02/10 06:17:32;;;;;;;83.75;29.55;;;1.90;99.90;;;;;;5024950;28;20033;-75
2023/02/10 06:19:58;;;;;;;85.65;29.95;;;1.90;99.90;;;;;;5007111;28;20069;-76
2023/02/10 06:22:24;;;;;;;91.20;30.63;;;1.90;99.90;;;;;;5007274;28;20037;-75
2023/02/10 06:24:49;;;;;;;89.75;31.42;;;1.90;99.90;;;;;;5009885;28;20037;-75
2023/02/10 06:27:15;;;;;;;87.45;30.58;;;1.90;99.90;;;;;;5010337;28;20018;-75
2023/02/10 06:29:41;;;;;;;83.03;29.33;;;1.80;99.90;;;;;;5008971;28;20029;-73
2023/02/10 06:32:09;;;;;;;80.35;28.90;;;1.90;99.90;;;;;;5007476;28;20519;-73
2023/02/10 06:34:34;;;;;;;90.15;29.92;;;1.90;99.90;;;;;;5010171;28;20034;-72
2023/02/10 06:37:00;;;;;;;86.85;28.63;;;1.80;99.90;;;;;;5011263;28;20033;-74
2023/02/10 06:39:25;;;;;;;91.60;30.52;;;1.80;99.90;;;;;;5010814;28;20034;-73
2023/02/10 06:41:51;;;;;;;78.25;29.75;;;1.80;99.90;;;;;;5011323;28;20041;-75
2023/02/10 06:44:17;;;;;;;89.38;30.70;;;1.80;99.90;;;;;;5009548;28;20036;-72
2023/02/10 06:46:42;;;;;;;82.88;29.98;;;1.80;99.90;;;;;;5009616;28;20109;-75
2023/02/10 06:49:08;;;;;;;86.05;31.02;;;1.90;99.90;;;;;;5005335;28;20034;-72
2023/02/10 06:51:34;;;;;;;90.03;31.10;;;1.80;99.90;;;;;;5008734;28;20547;-73
2023/02/10 06:53:59;;;;;;;84.70;32.00;;;1.90;99.90;;;;;;5004355;28;20390;-75
2023/02/10 06:56:25;;;;;;;83.38;32.50;;;1.90;99.90;;;;;;5006938;28;20034;-73
2023/02/10 06:58:50;;;;;;;90.10;31.90;;;1.90;99.90;;;;;;5005910;28;20053;-74
2023/02/10 07:01:18;;;;;;;78.78;30.00;;;1.90;99.90;;;;;;5007590;28;20624;-74
2023/02/10 07:03:43;;;;;;;90.03;31.73;;;1.80;99.90;;;;;;5016917;28;20065;-73
2023/02/10 07:06:09;;;;;;;94.57;30.45;;;1.80;99.90;;;;;;5010810;28;20022;-73
2023/02/10 07:08:35;;;;;;;89.78;31.35;;;1.90;99.90;;;;;;5010207;28;20030;-74
2023/02/10 07:11:01;;;;;;;88.13;31.08;;;1.90;99.90;;;;;;5009270;28;20041;-74
2023/02/10 07:13:27;;;;;;;92.50;30.92;;;1.90;99.90;;;;;;5010983;28;20034;-74
2023/02/10 07:15:52;;;;;;;88.60;31.88;;;1.90;99.90;;;;;;5009417;28;20094;-73
2023/02/10 07:18:18;;;;;;;79.13;28.95;;;1.90;99.90;;;;;;5016730;28;20029;-72
2023/02/10 07:20:43;;;;;;;87.95;30.33;;;1.90;99.90;;;;;;5008289;28;20125;-73
2023/02/10 07:23:09;;;;;;;75.78;27.67;;;1.90;99.90;;;;;;5008421;28;20049;-73
2023/02/10 07:25:35;;;;;;;83.38;29.65;;;1.90;99.90;;;;;;5010255;28;20521;-72
2023/02/10 07:28:00;;;;;;;86.97;29.17;;;2.00;99.90;;;;;;5010534;28;20041;-72
2023/02/10 07:30:26;;;;;;;77.50;31.13;;;2.00;99.90;;;;;;5011002;28;20018;-73
2023/02/10 07:32:52;;;;;;;80.00;29.52;;;2.00;99.90;;;;;;5007100;28;20624;-72
2023/02/10 07:35:23;;;;;;;82.53;29.80;;;2.10;99.90;;;;;;5010239;28;20155;-72
2023/02/10 07:37:49;;;;;;;85.03;28.17;;;2.10;99.90;;;;;;5010171;28;20624;-72
2023/02/10 07:40:15;;;;;;;77.30;29.52;;;2.10;99.90;;;;;;5008479;28;20026;-72
2023/02/10 07:42:40;;;;;;;99.00;29.35;;;2.20;99.90;;;;;;5009999;28;20037;-72
2023/02/10 07:45:06;;;;;;;77.95;29.80;;;2.20;99.90;;;;;;5008213;28;20038;-73
2023/02/10 07:47:32;;;;;;;70.93;26.80;;;2.30;99.90;;;;;;5009299;28;20124;-73
2023/02/10 07:49:57;;;;;;;71.97;28.58;;;2.40;99.90;;;;;;5012833;28;20033;-72
2023/02/10 07:52:23;;;;;;;68.80;27.05;;;2.50;99.90;;;;;;5012416;28;20042;-71
2023/02/10 07:54:49;;;;;;;73.90;26.60;;;2.70;99.90;;;;;;5011966;28;20025;-73
2023/02/10 07:57:15;;;;;;;67.47;25.58;;;2.80;99.90;;;;;;5011185;28;20096;-71
2023/02/10 07:59:41;;;;;;;66.68;25.52;;;2.90;99.90;;;;;;5011017;28;20030;-73
2023/02/10 08:02:09;;;;;;;58.40;23.05;;;3.00;99.90;;;;;;5011815;28;20038;-73
2023/02/10 08:04:35;;;;;;;56.70;23.25;;;3.10;99.90;;;;;;5012283;28;20033;-72
2023/02/10 08:07:00;;;;;;;63.08;24.17;;;3.20;99.90;;;;;;5010466;28;20026;-74
2023/02/10 08:09:26;;;;;;;54.15;22.55;;;3.40;99.90;;;;;;5013866;28;20031;-73
2023/02/10 08:11:51;;;;;;;60.42;22.08;;;3.50;99.90;;;;;;5012049;28;20061;-73
2023/02/10 08:14:17;;;;;;;61.25;22.02;;;3.50;99.90;;;;;;5010498;28;20045;-73
2023/02/10 08:16:43;;;;;;;49.17;20.00;;;3.70;99.90;;;;;;5011399;28;20026;-74
2023/02/10 08:19:08;;;;;;;51.95;19.70;;;3.90;99.90;;;;;;5009534;28;20042;-74
2023/02/10 08:21:34;;;;;;;50.78;20.95;;;4.00;99.90;;;;;;5009331;28;20026;-73
2023/02/10 08:24:00;;;;;;;54.92;20.90;;;4.20;99.90;;;;;;5012302;28;20038;-74
2023/02/10 08:26:25;;;;;;;59.58;20.95;;;4.30;99.90;;;;;;5011833;28;20035;-74
2023/02/10 08:28:54;;;;;;;53.42;19.52;;;4.50;99.90;;;;;;5011273;28;20024;-73
2023/02/10 08:31:20;;;;;;;45.22;17.95;;;4.70;99.90;;;;;;5007155;28;20514;-71
2023/02/10 08:33:46;;;;;;;51.20;18.35;;;4.90;99.90;;;;;;5008351;28;20030;-72
2023/02/10 08:36:15;;;;;;;50.70;19.27;;;5.10;99.90;;;;;;5011161;28;20037;-72
2023/02/10 08:38:40;;;;;;;43.85;18.75;;;5.40;99.90;;;;;;5009555;28;20042;-72
2023/02/10 08:41:06;;;;;;;44.58;17.90;;;5.50;99.90;;;;;;5010335;28;20022;-70
2023/02/10 08:43:32;;;;;;;46.85;18.08;;;5.60;99.90;;;;;;5012539;28;20026;-73
2023/02/10 08:45:59;;;;;;;41.55;16.55;;;5.70;99.90;;;;;;5012796;28;20091;-73
2023/02/10 08:48:26;;;;;;;40.97;16.02;;;5.80;99.90;;;;;;5013308;28;20496;-73
2023/02/10 08:50:53;;;;;;;43.60;16.27;;;6.00;99.90;;;;;;5011657;28;20502;-72
2023/02/10 08:53:18;;;;;;;41.83;16.55;;;6.10;99.90;;;;;;5010457;28;20049;-74
2023/02/10 08:55:54;;;;;;;48.10;16.98;;;6.20;99.90;;;;;;5012279;28;20034;-74
2023/02/10 08:58:19;;;;;;;45.67;16.45;;;6.20;99.90;;;;;;5009589;28;20054;-73
2023/02/10 09:00:45;;;;;;;45.63;17.38;;;6.20;99.90;;;;;;5012130;28;20061;-75
2023/02/10 09:03:10;;;;;;;42.25;16.48;;;6.20;99.90;;;;;;5011795;28;20565;-70
2023/02/10 09:05:36;;;;;;;42.25;17.80;;;6.20;99.90;;;;;;5012776;28;20034;-71
2023/02/10 09:08:03;;;;;;;41.15;16.30;;;6.30;99.90;;;;;;5011444;28;20037;-71
2023/02/10 09:10:29;;;;;;;38.70;15.90;;;6.40;99.90;;;;;;5011007;28;20117;-73
2023/02/10 09:12:55;;;;;;;37.83;16.38;;;6.60;99.90;;;;;;5011560;28;20062;-73
2023/02/10 09:15:20;;;;;;;41.60;16.75;;;6.70;99.90;;;;;;5011462;28;20040;-72
2023/02/10 09:17:46;;;;;;;41.53;15.90;;;6.80;99.90;;;;;;5011327;28;20030;-70
2023/02/10 09:20:12;;;;;;;39.50;14.77;;;6.80;99.90;;;;;;5012142;28;20161;-72
2023/02/10 09:22:37;;;;;;;37.28;14.73;;;6.90;99.90;;;;;;5011973;28;20069;-73
2023/02/10 09:25:03;;;;;;;41.22;15.55;;;7.20;99.90;;;;;;5010245;28;20114;-72
2023/02/10 09:27:29;;;;;;;35.22;15.00;;;7.20;99.90;;;;;;5011788;28;20026;-73
2023/02/10 09:29:54;;;;;;;40.22;15.60;;;7.30;99.90;;;;;;5008301;28;20077;-68
2023/02/10 09:32:20;;;;;;;45.22;15.30;;;7.50;99.90;;;;;;5008903;28;20073;-71
2023/02/10 09:34:46;;;;;;;39.40;15.38;;;7.40;99.90;;;;;;5009736;28;20031;-71
2023/02/10 09:37:11;;;;;;;37.38;15.02;;;7.30;99.90;;;;;;5006300;28;20052;-71
2023/02/10 09:39:38;;;;;;;34.97;15.48;;;7.30;99.90;;;;;;5005108;28;20466;-72
2023/02/10 09:42:14;;;;;;;45.35;16.48;;;7.20;99.90;;;;;;5008621;28;21061;-72
2023/02/10 09:44:56;;;;;;;34.80;15.05;;;7.30;99.90;;;;;;5006650;28;20041;-74
2023/02/10 09:47:36;;;;;;;46.20;16.77;;;7.40;99.90;;;;;;5007000;28;20040;-72
2023/02/10 09:50:35;;;;;;;42.78;16.15;;;7.50;99.90;;;;;;5009113;28;20037;-72
2023/02/10 09:53:09;;;;;;;44.50;16.02;;;7.50;99.90;;;;;;5008596;28;20061;-76
2023/02/10 09:55:45;;;;;;;;;;;7.50;99.90;;;;;;5011904;28;20033;-71
2023/02/10 09:58:37;;;;;;;40.05;14.15;;;7.50;99.90;;;;;;5009698;28;19924;-74
2023/02/10 10:01:23;;;;;;;42.28;15.50;;;7.70;99.90;;;;;;5017246;28;20035;-74
2023/02/10 10:04:05;;;;;;;38.28;15.02;;;7.90;99.90;;;;;;5010361;28;20109;-73
2023/02/10 10:06:44;;;;;;;41.05;15.32;;;8.20;99.90;;;;;;5010938;28;20030;-74
2023/02/10 10:09:09;;;;;;;40.92;16.33;;;8.40;99.90;;;;;;5011086;28;20033;-72
2023/02/10 10:11:45;;;;;;;42.65;15.27;;;8.70;99.90;;;;;;5009953;28;20027;-74
2023/02/10 10:14:18;;;;;;;39.78;15.23;;;9.00;99.90;;;;;;5011414;28;20130;-74
2023/02/10 10:17:01;;;;;;;43.55;14.45;;;9.10;99.90;;;;;;5010531;28;20045;-71
2023/02/10 10:20:15;;;;;;;37.75;15.40;;;9.30;99.90;;;;;;5009179;28;20105;-75
2023/02/10 10:22:55;;;;;;;39.22;14.63;;;9.30;99.90;;;;;;5009210;28;20535;-74
2023/02/10 10:25:52;;;;;;;38.35;15.45;;;9.20;99.90;;;;;;5008678;28;20042;-72
2023/02/10 10:28:42;;;;;;;33.22;13.45;;;9.10;99.90;;;;;;5007046;28;20042;-70
2023/02/10 10:31:11;;;;;;;31.23;13.88;;;9.20;99.90;;;;;;5010786;28;20023;-73
2023/02/10 10:33:47;;;;;;;33.30;13.68;;;9.40;99.90;;;;;;5010788;28;20038;-74
2023/02/10 10:36:19;;;;;;;36.08;15.05;;;9.50;99.90;;;;;;5008494;28;20049;-74
2023/02/10 10:38:53;;;;;;;33.25;14.23;;;9.50;99.90;;;;;;5006724;28;20046;-73
2023/02/10 10:41:23;;;;;;;33.83;14.32;;;9.70;99.90;;;;;;5007290;28;20025;-71
2023/02/10 10:43:51;;;;;;;37.58;14.52;;;9.80;99.90;;;;;;5009214;28;20535;-72
2023/02/10 10:46:44;;;;;;;37.78;15.05;;;9.70;99.90;;;;;;5009331;28;20038;-72
2023/02/10 10:49:10;;;;;;;39.63;15.88;;;9.60;99.90;;;;;;5003850;28;20241;-72
2023/02/10 10:51:35;;;;;;;38.42;14.57;;;9.50;99.90;;;;;;5006440;28;20078;-74
2023/02/10 10:54:02;;;;;;;38.35;14.55;;;9.40;99.90;;;;;;5009733;28;20050;-71
2023/02/10 10:56:37;;;;;;;34.60;14.98;;;9.30;99.90;;;;;;5009231;28;20030;-70
2023/02/10 10:59:22;;;;;;;38.75;13.23;;;9.40;99.90;;;;;;5006742;28;20090;-71
2023/02/10 11:01:49;;;;;;;41.20;15.43;;;9.60;99.90;;;;;;5008428;28;20136;-73
2023/02/10 11:04:20;;;;;;;40.35;15.05;;;9.70;99.90;;;;;;5008109;28;20030;-75
2023/02/10 11:06:53;;;;;;;41.50;14.60;;;9.90;99.90;;;;;;5007845;28;20038;-73
2023/02/10 11:09:40;;;;;;;33.60;13.75;;;9.90;99.90;;;;;;5008983;28;20035;-71
2023/02/10 11:12:16;;;;;;;35.53;14.65;;;9.90;99.90;;;;;;5007506;28;20053;-74
2023/02/10 11:14:48;;;;;;;40.78;14.65;;;9.60;99.90;;;;;;5007755;28;21289;-72
2023/02/10 11:17:35;;;;;;;41.30;15.23;;;9.40;99.90;;;;;;5007650;28;20046;-72
2023/02/10 11:20:12;;;;;;;43.20;15.00;;;9.20;99.90;;;;;;5013527;28;20031;-71
2023/02/10 11:22:39;;;;;;;37.55;14.45;;;9.00;99.90;;;;;;5012862;28;20029;-74
2023/02/10 11:25:23;;;;;;;38.60;15.15;;;8.90;99.90;;;;;;5014102;28;20037;-74
2023/02/10 11:27:53;;;;;;;38.95;15.30;;;8.90;99.90;;;;;;5013897;28;20752;-72
2023/02/10 11:30:36;;;;;;;40.30;16.17;;;8.80;99.90;;;;;;5014054;28;20034;-72
2023/02/10 11:33:05;;;;;;;39.35;15.05;;;8.70;99.90;;;;;;5013893;28;20041;-74
2023/02/10 11:35:32;;;;;;;34.33;14.70;;;8.60;99.90;;;;;;5013103;28;20396;-70
2023/02/10 11:38:07;;;;;;;34.22;15.18;;;8.70;99.90;;;;;;5015948;28;20033;-75
2023/02/10 11:40:53;;;;;;;36.63;14.85;;;9.00;99.90;;;;;;5015125;28;20027;-74
2023/02/10 11:43:23;;;;;;;48.63;15.85;;;9.00;99.90;;;;;;5014689;28;20435;-71
2023/02/10 11:46:01;;;;;;;40.85;15.48;;;9.00;99.90;;;;;;5014504;28;20026;-74
2023/02/10 11:48:28;;;;;;;40.97;15.95;;;9.00;99.90;;;;;;5014192;28;20033;-74
2023/02/10 11:51:03;;;;;;;39.92;15.93;;;9.00;99.90;;;;;;5013411;28;20081;-74
2023/02/10 11:53:33;;;;;;;43.50;15.70;;;9.10;99.90;;;;;;5014571;28;20038;-73
2023/02/10 11:56:14;;;;;;;41.05;15.02;;;9.20;99.90;;;;;;5013265;28;20078;-73
2023/02/10 11:59:11;;;;;;;37.17;14.85;;;9.20;99.90;;;;;;5007505;28;20068;-72
2023/02/10 12:01:40;;;;;;;39.08;15.38;;;9.80;99.90;;;;;;5019130;28;20094;-71
2023/02/10 12:04:11;;;;;;;37.35;14.80;;;10.60;99.90;;;;;;5009469;28;20053;-72
2023/02/10 12:06:58;;;;;;;38.33;14.93;;;11.30;99.90;;;;;;5008595;28;20048;-74
2023/02/10 12:09:54;;;;;;;41.75;14.63;;;11.70;99.90;;;;;;5013997;28;20037;-73
2023/02/10 12:12:51;;;;;;;33.10;14.63;;;12.20;99.90;;;;;;5012646;28;20041;-71
2023/02/10 12:15:23;;;;;;;30.70;13.68;;;12.50;99.90;;;;;;5012875;28;20030;-71
2023/02/10 12:18:18;;;;;;;30.23;12.90;;;12.90;99.90;;;;;;5011722;28;20110;-70
2023/02/10 12:20:59;;;;;;;30.58;13.35;;;13.10;99.90;;;;;;5012927;28;20038;-71
2023/02/10 12:23:49;;;;;;;32.13;13.02;;;13.20;99.90;;;;;;5013241;28;20476;-74
2023/02/10 12:26:41;;;;;;;34.30;13.80;;;13.10;99.90;;;;;;5012174;28;20101;-72
2023/02/10 12:29:25;;;;;;;29.33;13.35;;;13.00;99.90;;;;;;5012133;28;20026;-72
2023/02/10 12:31:59;;;;;;;31.33;12.93;;;12.90;99.90;;;;;;5009919;28;20534;-72
2023/02/10 12:34:24;;;;;;;;;;;12.80;99.90;;;;;;5019743;28;20026;-72
2023/02/10 12:37:20;;;;;;;30.70;12.85;;;12.80;99.90;;;;;;5012882;28;19925;-74
2023/02/10 12:39:52;;;;;;;30.25;12.80;;;12.70;99.90;;;;;;5009536;28;20023;-73
2023/02/10 12:42:32;;;;;;;32.75;14.55;;;12.90;99.90;;;;;;5011338;28;20042;-70
2023/02/10 12:45:26;;;;;;;26.92;13.73;;;12.80;99.90;;;;;;5011088;28;20057;-70
2023/02/10 12:48:19;;;;;;;28.63;12.50;;;12.90;99.90;;;;;;5008859;28;20046;-70
2023/02/10 12:51:13;;;;;;;31.42;12.85;;;12.80;99.90;;;;;;5008290;28;20028;-69
2023/02/10 12:53:45;;;;;;;28.65;14.35;;;12.70;99.90;;;;;;5008356;28;20040;-74